ムンバイ の空港の天気 - METARとTAF

チャットラパティー・シヴァージー国際空港 ( VABB / BOM ) - インド ムンバイ
飛行場実況気象(Metar)
観測時間01/29 12:00 IST (01/29 06:30 UTC)
風向・風速東 3m/s
視程3000m
天気現象
なし
気温28℃
湿度32%
気圧1016hPa
METARVABB 290630Z 08005KT 3000 FU NSC 28/10 Q1016 NOSIG
過去の天気等 Google飛行場航空写真 Wunderground天気予報

過去48時間のMETAR

飛行場予報(TAF)
発表時間: 1/29 10:30 IST (1/29 05:00 UTC)
予報対象時間: 29日11時 IST ~ 30日17時 IST
風向・風速東北東 3m/s
視程3000m
天気現象
なし
29日13時 IST ~ 29日15時 IST に徐々に
風向・風速西 5m/s
視程4000m
天気現象
29日18時 IST ~ 29日20時 IST に徐々に
風向・風速北北西 4m/s
視程3000m
天気現象
29日23時 IST ~ 30日1時 IST に徐々に
風向・風速不定 2m/s
視程2500m
天気現象
20日8時 IST ~ 20日10時 IST に徐々に
風向・風速東 3m/s
視程3000m
天気現象
30日13時 IST ~ 30日15時 IST に徐々に
風向・風速西 5m/s
視程4000m
天気現象
TAF VABB 290500Z 2906/3012 07006KT 3000 FU NSC
BECMG 2908/2910 28009KT 4000 FU
BECMG 2913/2915 34008KT 3000 FU
BECMG 2918/2920 VRB03KT 2500 FU
TEMPO 300/3003 2000 HZ
BECMG 2003/2005 09005KT 3000 FU
BECMG 3008/3010 28010KT 4000 FU